createdAt,value
2023-04-08T00:02:11.100Z,9.40
2023-04-08T00:04:39.507Z,9.40
2023-04-08T00:07:08.053Z,9.40
2023-04-08T00:09:36.452Z,9.40
2023-04-08T00:12:04.798Z,9.40
2023-04-08T00:14:34.440Z,9.30
2023-04-08T00:17:02.752Z,9.30
2023-04-08T00:19:31.338Z,9.30
2023-04-08T00:21:59.457Z,9.30
2023-04-08T00:24:27.633Z,9.30
2023-04-08T00:26:56.581Z,9.30
2023-04-08T00:29:24.704Z,9.40
2023-04-08T00:31:54.328Z,9.40
2023-04-08T00:34:22.832Z,9.30
2023-04-08T00:36:51.186Z,9.30
2023-04-08T00:39:19.330Z,9.30
2023-04-08T00:41:47.705Z,9.30
2023-04-08T00:44:15.882Z,9.30
2023-04-08T00:46:44.167Z,9.20
2023-04-08T00:49:14.271Z,9.20
2023-04-08T00:51:42.450Z,9.20
2023-04-08T00:54:11.073Z,9.30
2023-04-08T00:56:39.839Z,9.30
2023-04-08T00:59:08.019Z,9.30
2023-04-08T01:01:44.787Z,9.30
2023-04-08T01:04:28.756Z,9.30
2023-04-08T01:07:00.967Z,9.30
2023-04-08T01:09:33.956Z,9.20
2023-04-08T01:12:07.934Z,9.20
2023-04-08T01:14:40.068Z,9.30
2023-04-08T01:17:10.242Z,9.30
2023-04-08T01:19:44.814Z,9.20
2023-04-08T01:22:28.789Z,9.30
2023-04-08T01:25:00.654Z,9.30
2023-04-08T01:27:33.236Z,9.30
2023-04-08T01:30:03.009Z,9.40
2023-04-08T01:32:33.330Z,9.40
2023-04-08T01:35:03.846Z,9.40
2023-04-08T01:37:34.165Z,9.30
2023-04-08T01:40:03.692Z,9.40
2023-04-08T01:42:35.499Z,9.30
2023-04-08T01:45:06.138Z,9.30
2023-04-08T01:47:35.500Z,9.30
2023-04-08T01:50:04.880Z,9.30
2023-04-08T01:52:36.101Z,9.30
2023-04-08T01:55:04.643Z,9.30
2023-04-08T01:57:38.030Z,9.40
2023-04-08T02:00:09.926Z,9.40
2023-04-08T02:02:40.202Z,9.50
2023-04-08T02:05:09.683Z,9.40
2023-04-08T02:07:37.930Z,9.50
2023-04-08T02:10:07.162Z,9.40
2023-04-08T02:12:36.707Z,9.40
2023-04-08T02:15:05.833Z,9.30
2023-04-08T02:17:38.978Z,9.30
2023-04-08T02:20:10.058Z,9.20
2023-04-08T02:22:43.551Z,9.20
2023-04-08T02:25:16.139Z,9.20
2023-04-08T02:27:49.059Z,9.20
2023-04-08T02:30:18.506Z,9.20
2023-04-08T02:32:48.534Z,9.20
2023-04-08T02:35:17.857Z,9.20
2023-04-08T02:37:48.867Z,9.30
2023-04-08T02:40:28.102Z,9.40
2023-04-08T02:42:57.766Z,9.30
2023-04-08T02:45:29.972Z,9.30
2023-04-08T02:47:58.848Z,9.20
2023-04-08T02:50:27.164Z,9.20
2023-04-08T02:52:55.596Z,9.20
2023-04-08T02:55:24.114Z,9.20
2023-04-08T02:57:52.349Z,9.20
2023-04-08T03:00:22.178Z,9.20
2023-04-08T03:02:50.843Z,9.30
2023-04-08T03:05:19.203Z,9.40
2023-04-08T03:07:47.728Z,9.40
2023-04-08T03:10:15.874Z,9.50
2023-04-08T03:12:44.040Z,9.40
2023-04-08T03:15:12.772Z,9.30
2023-04-08T03:17:43.104Z,9.30
2023-04-08T03:20:12.162Z,9.30
2023-04-08T03:22:40.910Z,9.20
2023-04-08T03:25:09.784Z,9.20
2023-04-08T03:27:37.960Z,9.20
2023-04-08T03:30:07.538Z,9.20
2023-04-08T03:32:35.992Z,9.10
2023-04-08T03:35:06.246Z,9.10
2023-04-08T03:37:34.781Z,9.10
2023-04-08T03:40:02.986Z,9.10
2023-04-08T03:42:31.297Z,9.10
2023-04-08T03:44:59.898Z,9.00
2023-04-08T03:47:28.223Z,9.10
2023-04-08T03:49:56.402Z,9.10
2023-04-08T03:52:26.879Z,9.10
2023-04-08T03:54:55.004Z,9.10
2023-04-08T03:57:23.444Z,9.10
2023-04-08T03:59:52.091Z,9.10
2023-04-08T04:02:20.470Z,9.20
2023-04-08T04:04:48.736Z,9.10
2023-04-08T04:07:17.285Z,9.00
2023-04-08T04:09:47.139Z,8.90
2023-04-08T04:12:15.261Z,8.90
2023-04-08T04:14:43.517Z,8.90
2023-04-08T04:17:11.735Z,8.90
2023-04-08T04:19:39.856Z,8.90
2023-04-08T04:22:08.123Z,8.90
2023-04-08T04:24:36.421Z,8.90
2023-04-08T04:27:05.989Z,8.90
2023-04-08T04:29:34.218Z,8.90
2023-04-08T04:32:02.717Z,8.90
2023-04-08T04:34:30.903Z,8.90
2023-04-08T04:36:59.349Z,8.90
2023-04-08T04:39:27.794Z,8.90
2023-04-08T04:41:55.941Z,8.90
2023-04-08T04:44:25.822Z,8.90
2023-04-08T04:46:54.203Z,8.90
2023-04-08T04:49:22.667Z,8.90
2023-04-08T04:51:51.086Z,9.00
2023-04-08T04:54:19.544Z,9.00
2023-04-08T04:56:47.763Z,8.90
2023-04-08T04:59:16.149Z,8.90
2023-04-08T05:01:46.250Z,8.90
2023-04-08T05:04:14.513Z,8.90
2023-04-08T05:06:43.031Z,8.90
2023-04-08T05:09:11.508Z,9.00
2023-04-08T05:11:39.976Z,9.00
2023-04-08T05:14:08.476Z,9.00
2023-04-08T05:16:36.740Z,9.00
2023-04-08T05:19:06.529Z,9.00
2023-04-08T05:21:34.935Z,9.10
2023-04-08T05:24:03.215Z,9.10
2023-04-08T05:26:31.840Z,9.10
2023-04-08T05:29:00.318Z,9.10
2023-04-08T05:31:29.065Z,9.10
2023-04-08T05:33:57.655Z,9.10
2023-04-08T05:36:28.272Z,9.10
2023-04-08T05:38:56.435Z,9.10
2023-04-08T05:41:24.780Z,9.10
2023-04-08T05:43:53.140Z,9.20
2023-04-08T05:46:21.324Z,9.20
2023-04-08T05:48:49.871Z,9.20
2023-04-08T05:51:18.600Z,9.20
2023-04-08T05:53:48.321Z,9.20
2023-04-08T05:56:16.867Z,9.20
2023-04-08T05:58:45.514Z,9.20
2023-04-08T06:01:13.711Z,9.20
2023-04-08T06:03:42.022Z,9.20
2023-04-08T06:06:12.814Z,9.20
2023-04-08T06:08:41.425Z,9.20
2023-04-08T06:11:11.965Z,9.20
2023-04-08T06:13:40.329Z,9.20
2023-04-08T06:16:18.708Z,9.20
2023-04-08T06:18:49.229Z,9.30
2023-04-08T06:21:18.027Z,9.30
2023-04-08T06:23:46.427Z,9.30
2023-04-08T06:26:16.505Z,9.30
2023-04-08T06:28:45.900Z,9.30
2023-04-08T06:31:14.066Z,9.30
2023-04-08T06:33:42.493Z,9.40
2023-04-08T06:36:13.286Z,9.40
2023-04-08T06:38:41.469Z,9.40
2023-04-08T06:41:10.129Z,9.40
2023-04-08T06:43:39.954Z,9.40
2023-04-08T06:46:08.340Z,9.40
2023-04-08T06:48:38.053Z,9.40
2023-04-08T06:51:07.877Z,9.50
2023-04-08T06:53:36.520Z,9.50
2023-04-08T06:56:05.206Z,9.50
2023-04-08T06:58:33.416Z,9.60
2023-04-08T07:01:03.423Z,9.60
2023-04-08T07:03:31.899Z,9.60
2023-04-08T07:06:00.100Z,9.60
2023-04-08T07:08:28.744Z,9.70
2023-04-08T07:10:56.910Z,9.70
2023-04-08T07:13:25.212Z,9.70
2023-04-08T07:15:53.450Z,9.70
2023-04-08T07:18:23.659Z,9.80
2023-04-08T07:20:53.488Z,9.80
2023-04-08T07:23:22.228Z,9.80
2023-04-08T07:25:50.465Z,9.90
2023-04-08T07:28:19.048Z,9.90
2023-04-08T07:30:47.410Z,10.00
2023-04-08T07:33:15.965Z,10.00
2023-04-08T07:35:45.876Z,10.10
2023-04-08T07:38:14.517Z,10.10
2023-04-08T07:40:42.667Z,10.20
2023-04-08T07:43:10.943Z,10.20
2023-04-08T07:45:39.286Z,10.30
2023-04-08T07:48:07.891Z,10.30
2023-04-08T07:51:08.238Z,10.40
2023-04-08T07:53:28.629Z,10.50
2023-04-08T07:55:56.959Z,10.50
2023-04-08T07:58:25.329Z,10.50
2023-04-08T08:00:53.866Z,10.50
2023-04-08T08:03:22.238Z,10.50
2023-04-08T08:05:50.529Z,10.50
2023-04-08T08:08:18.693Z,10.70
2023-04-08T08:10:48.323Z,10.80
2023-04-08T08:13:18.392Z,11.00
2023-04-08T08:15:46.566Z,11.10
2023-04-08T08:18:14.878Z,11.30
2023-04-08T08:20:43.340Z,11.40
2023-04-08T08:23:11.579Z,11.50
2023-04-08T08:25:39.841Z,11.60
2023-04-08T08:28:09.446Z,11.80
2023-04-08T08:30:38.525Z,11.80
2023-04-08T08:33:06.723Z,11.90
2023-04-08T08:35:34.904Z,11.90
2023-04-08T08:38:03.579Z,11.90
2023-04-08T08:40:31.978Z,12.00
2023-04-08T08:43:01.528Z,12.00
2023-04-08T08:45:31.384Z,12.10
2023-04-08T08:47:59.844Z,12.00
2023-04-08T08:50:28.950Z,11.90
2023-04-08T08:52:57.464Z,11.90
2023-04-08T08:57:56.944Z,12.00
2023-04-08T09:00:34.960Z,12.20
2023-04-08T09:03:21.231Z,12.30
2023-04-08T09:05:53.869Z,12.50
2023-04-08T09:08:26.620Z,12.50
2023-04-08T09:10:55.053Z,12.70
2023-04-08T09:13:24.729Z,12.80
2023-04-08T09:16:12.753Z,12.80
2023-04-08T09:18:44.667Z,13.00
2023-04-08T09:21:14.667Z,13.30
2023-04-08T09:23:44.648Z,13.40
2023-04-08T09:26:14.339Z,13.30
2023-04-08T09:28:43.937Z,13.40
2023-04-08T09:31:24.500Z,13.50
2023-04-08T09:33:55.481Z,13.30
2023-04-08T09:36:24.224Z,13.40
2023-04-08T09:38:52.696Z,13.20
2023-04-08T09:41:23.738Z,13.20
2023-04-08T09:43:54.303Z,13.10
2023-04-08T09:46:29.172Z,13.10
2023-04-08T09:49:03.870Z,13.20
2023-04-08T09:51:37.900Z,13.20
2023-04-08T09:54:13.676Z,13.10
2023-04-08T09:56:45.787Z,13.20
2023-04-08T09:59:17.480Z,13.30
2023-04-08T10:01:54.440Z,13.30
2023-04-08T10:04:24.542Z,13.30
2023-04-08T10:06:58.824Z,13.20
2023-04-08T10:09:28.242Z,13.40
2023-04-08T10:11:57.044Z,13.40
2023-04-08T10:14:28.850Z,13.40
2023-04-08T10:17:28.731Z,13.30
2023-04-08T10:19:58.779Z,13.20
2023-04-08T10:22:51.754Z,13.10
2023-04-08T10:25:31.730Z,13.00
2023-04-08T10:28:00.603Z,12.80
2023-04-08T10:30:41.349Z,12.70
2023-04-08T10:33:14.842Z,12.60
2023-04-08T10:35:46.688Z,12.40
2023-04-08T10:38:16.103Z,12.30
2023-04-08T10:40:46.034Z,12.10
2023-04-08T10:43:16.237Z,12.00
2023-04-08T10:45:48.429Z,12.10
2023-04-08T10:48:20.776Z,12.10
2023-04-08T10:50:55.383Z,12.10
2023-04-08T10:53:30.814Z,11.90
2023-04-08T10:56:06.257Z,12.00
2023-04-08T10:58:35.748Z,12.00
2023-04-08T11:01:08.422Z,12.00
2023-04-08T11:03:38.430Z,11.80
2023-04-08T11:06:07.548Z,11.80
2023-04-08T11:08:36.947Z,11.90
2023-04-08T11:11:09.378Z,12.10
2023-04-08T11:13:38.467Z,12.30
2023-04-08T11:16:17.730Z,12.50
2023-04-08T11:18:48.397Z,12.40
2023-04-08T11:21:17.882Z,12.50
2023-04-08T11:23:46.492Z,12.30
2023-04-08T11:26:16.616Z,12.00
2023-04-08T11:28:45.825Z,11.80
2023-04-08T11:31:14.708Z,11.70
2023-04-08T11:33:49.481Z,11.70
2023-04-08T11:36:21.586Z,11.80
2023-04-08T11:38:50.289Z,11.90
2023-04-08T11:41:18.437Z,11.90
2023-04-08T11:43:54.146Z,11.80
2023-04-08T11:46:23.047Z,11.90
2023-04-08T11:49:04.259Z,11.80
2023-04-08T11:51:32.947Z,11.90
2023-04-08T11:54:01.691Z,11.90
2023-04-08T11:56:33.687Z,12.00
2023-04-08T11:59:02.005Z,12.30
2023-04-08T12:01:30.254Z,12.50
2023-04-08T12:04:01.575Z,12.70
2023-04-08T12:06:31.813Z,12.90
2023-04-08T12:09:00.081Z,13.00
2023-04-08T12:11:28.335Z,13.10
2023-04-08T12:13:57.372Z,13.20
2023-04-08T12:16:25.702Z,13.30
2023-04-08T12:18:54.101Z,13.40
2023-04-08T12:21:22.521Z,13.50
2023-04-08T12:23:52.456Z,13.50
2023-04-08T12:26:21.268Z,13.50
2023-04-08T12:28:51.140Z,13.60
2023-04-08T12:31:19.310Z,13.80
2023-04-08T12:33:48.046Z,14.10
2023-04-08T12:36:17.343Z,14.30
2023-04-08T12:38:45.986Z,14.40
2023-04-08T12:41:15.796Z,14.40
2023-04-08T12:43:44.288Z,14.30
2023-04-08T12:46:12.913Z,14.50
2023-04-08T12:48:41.234Z,14.50
2023-04-08T12:51:10.379Z,14.80
2023-04-08T12:53:38.657Z,14.80
2023-04-08T12:56:07.836Z,15.00
2023-04-08T12:58:37.463Z,15.20
2023-04-08T13:01:06.304Z,15.30
2023-04-08T13:03:36.450Z,15.40
2023-04-08T13:06:05.196Z,15.20
2023-04-08T13:08:33.276Z,14.90
2023-04-08T13:11:01.815Z,15.00
2023-04-08T13:13:30.288Z,15.20
2023-04-08T13:15:59.937Z,15.40
2023-04-08T13:18:28.386Z,15.70
2023-04-08T13:20:58.220Z,15.30
2023-04-08T13:23:26.536Z,15.10
2023-04-08T13:25:55.019Z,14.80
2023-04-08T13:28:23.406Z,14.90
2023-04-08T13:30:51.845Z,14.80
2023-04-08T13:33:22.468Z,14.80
2023-04-08T13:35:51.078Z,14.90
2023-04-08T13:38:19.203Z,14.80
2023-04-08T13:40:49.132Z,14.80
2023-04-08T13:43:17.401Z,15.00
2023-04-08T13:45:46.300Z,15.30
2023-04-08T13:48:14.914Z,15.60
2023-04-08T13:50:44.460Z,15.90
2023-04-08T13:53:12.615Z,15.90
2023-04-08T13:55:41.468Z,16.00
2023-04-08T13:58:21.095Z,15.90
2023-04-08T14:00:52.746Z,16.00
2023-04-08T14:03:21.405Z,16.10
2023-04-08T14:05:51.188Z,16.20
2023-04-08T14:08:25.855Z,16.30
2023-04-08T14:10:54.650Z,16.60
2023-04-08T14:13:22.990Z,16.90
2023-04-08T14:15:53.842Z,17.10
2023-04-08T14:18:22.205Z,17.40
2023-04-08T14:20:51.875Z,17.50
2023-04-08T14:23:20.477Z,17.80
2023-04-08T14:25:48.609Z,18.20
2023-04-08T14:28:17.004Z,18.00
2023-04-08T14:30:45.370Z,18.10
2023-04-08T14:33:14.093Z,18.00
2023-04-08T14:35:42.279Z,18.20
2023-04-08T14:38:12.021Z,18.10
2023-04-08T14:40:40.668Z,18.00
2023-04-08T14:43:08.854Z,17.80
2023-04-08T14:45:37.153Z,17.60
2023-04-08T14:48:05.718Z,17.40
2023-04-08T14:50:33.985Z,17.10
2023-04-08T14:53:02.645Z,16.80
2023-04-08T14:55:32.401Z,16.60
2023-04-08T14:58:01.277Z,16.20
2023-04-08T15:00:30.261Z,15.70
2023-04-08T15:02:59.019Z,15.70
2023-04-08T15:05:27.242Z,15.60
2023-04-08T15:07:55.943Z,15.50
2023-04-08T15:10:24.073Z,15.50
2023-04-08T15:12:53.600Z,15.30
2023-04-08T15:15:22.063Z,15.40
2023-04-08T15:17:52.115Z,15.60
2023-04-08T15:20:20.603Z,15.70
2023-04-08T15:22:49.094Z,15.90
2023-04-08T15:25:17.258Z,16.10
2023-04-08T15:27:45.398Z,16.20
2023-04-08T15:30:15.455Z,16.30
2023-04-08T15:32:43.714Z,16.50
2023-04-08T15:35:12.115Z,16.60
2023-04-08T15:37:40.440Z,16.60
2023-04-08T15:40:10.186Z,16.70
2023-04-08T15:42:38.327Z,16.90
2023-04-08T15:45:08.666Z,17.00
2023-04-08T15:47:38.335Z,17.10
2023-04-08T15:50:07.448Z,17.30
2023-04-08T15:52:36.611Z,17.50
2023-04-08T15:55:05.157Z,17.30
2023-04-08T15:57:33.353Z,17.10
2023-04-08T16:00:01.996Z,17.10
2023-04-08T16:02:30.314Z,17.00
2023-04-08T16:04:59.929Z,16.90
2023-04-08T16:07:28.563Z,17.00
2023-04-08T16:09:56.715Z,17.00
2023-04-08T16:12:25.573Z,17.00
2023-04-08T16:14:53.925Z,17.00
2023-04-08T16:17:22.212Z,17.10
2023-04-08T16:19:51.783Z,17.20
2023-04-08T16:22:21.879Z,17.00
2023-04-08T16:24:50.023Z,16.90
2023-04-08T16:27:18.207Z,16.80
2023-04-08T16:29:47.088Z,16.60
2023-04-08T16:32:15.329Z,16.40
2023-04-08T16:34:43.555Z,16.30
2023-04-08T16:37:14.710Z,16.20
2023-04-08T16:39:44.630Z,16.20
2023-04-08T16:42:13.051Z,16.00
2023-04-08T16:44:42.334Z,15.80
2023-04-08T16:47:10.897Z,15.70
2023-04-08T16:49:39.069Z,15.50
2023-04-08T16:52:07.702Z,15.30
2023-04-08T16:54:35.946Z,15.40
2023-04-08T16:57:05.880Z,15.10
2023-04-08T16:59:34.217Z,15.00
2023-04-08T17:02:02.577Z,14.90
2023-04-08T17:04:31.450Z,14.80
2023-04-08T17:06:59.907Z,14.60
2023-04-08T17:09:28.547Z,14.50
2023-04-08T17:11:57.345Z,14.30
2023-04-08T17:14:27.819Z,14.20
2023-04-08T17:16:56.135Z,14.10
2023-04-08T17:19:24.741Z,14.10
2023-04-08T17:21:53.253Z,14.20
2023-04-08T17:24:21.390Z,14.20
2023-04-08T17:26:49.658Z,14.20
2023-04-08T17:29:17.866Z,14.30
2023-04-08T17:31:47.438Z,14.30
2023-04-08T17:34:16.014Z,14.30
2023-04-08T17:36:44.906Z,14.30
2023-04-08T17:39:13.005Z,14.30
2023-04-08T17:41:42.465Z,14.20
2023-04-08T17:44:12.027Z,14.20
2023-04-08T17:46:41.041Z,14.10
2023-04-08T17:49:13.008Z,14.10
2023-04-08T17:51:41.466Z,14.10
2023-04-08T17:54:09.704Z,14.00
2023-04-08T17:56:38.054Z,14.00
2023-04-08T17:59:06.278Z,14.10
2023-04-08T18:01:34.941Z,14.00
2023-04-08T18:04:03.348Z,13.90
2023-04-08T18:06:33.079Z,13.80
2023-04-08T18:09:03.702Z,13.80
2023-04-08T18:11:32.626Z,13.70
2023-04-08T18:14:01.097Z,13.60
2023-04-08T18:16:29.634Z,13.70
2023-04-08T18:18:57.871Z,13.60
2023-04-08T18:21:26.046Z,13.70
2023-04-08T18:23:55.709Z,13.60
2023-04-08T18:26:24.134Z,13.60
2023-04-08T18:28:52.257Z,13.50
2023-04-08T18:31:20.829Z,13.50
2023-04-08T18:33:49.748Z,13.50
2023-04-08T18:36:18.504Z,13.40
2023-04-08T18:38:48.637Z,13.40
2023-04-08T18:41:21.219Z,13.40
2023-04-08T18:43:50.038Z,13.40
2023-04-08T18:46:19.738Z,13.40
2023-04-08T18:48:49.358Z,13.30
2023-04-08T18:51:17.786Z,13.30
2023-04-08T18:53:46.286Z,13.20
2023-04-08T18:56:19.687Z,13.10
2023-04-08T18:58:47.857Z,13.00
2023-04-08T19:01:16.274Z,13.00
2023-04-08T19:03:45.055Z,12.90
2023-04-08T19:06:14.053Z,12.90
2023-04-08T19:08:42.550Z,12.90
2023-04-08T19:11:11.133Z,12.80
2023-04-08T19:13:41.662Z,12.80
2023-04-08T19:16:10.899Z,12.70
2023-04-08T19:18:39.290Z,12.70
2023-04-08T19:21:07.463Z,12.60
2023-04-08T19:23:35.606Z,12.50
2023-04-08T19:26:06.545Z,12.30
2023-04-08T19:28:35.533Z,12.30
2023-04-08T19:31:05.240Z,12.10
2023-04-08T19:33:33.616Z,12.10
2023-04-08T19:36:01.921Z,11.90
2023-04-08T19:38:30.067Z,11.80
2023-04-08T19:40:58.411Z,11.70
2023-04-08T19:43:27.533Z,11.50
2023-04-08T19:45:55.837Z,11.50
2023-04-08T19:48:26.089Z,11.40
2023-04-08T19:50:54.536Z,11.40
2023-04-08T19:53:22.924Z,11.20
2023-04-08T19:55:51.406Z,11.20
2023-04-08T19:58:19.801Z,11.00
2023-04-08T20:00:48.044Z,11.00
2023-04-08T20:03:16.449Z,10.90
2023-04-08T20:05:47.230Z,10.80
2023-04-08T20:08:15.740Z,10.80
2023-04-08T20:10:44.033Z,10.70
2023-04-08T20:13:12.354Z,10.70
2023-04-08T20:15:40.520Z,10.70
2023-04-08T20:18:09.052Z,10.70
2023-04-08T20:20:37.375Z,10.60
2023-04-08T20:23:06.905Z,10.60
2023-04-08T20:25:35.122Z,10.40
2023-04-08T20:28:03.388Z,10.30
2023-04-08T20:30:31.543Z,10.40
2023-04-08T20:32:59.840Z,10.30
2023-04-08T20:35:28.302Z,10.40
2023-04-08T20:37:56.493Z,10.30
2023-04-08T20:40:26.850Z,10.30
2023-04-08T20:42:55.179Z,10.20
2023-04-08T20:45:24.172Z,10.20
2023-04-08T20:47:52.510Z,10.10
2023-04-08T20:50:21.032Z,10.10
2023-04-08T20:52:49.388Z,10.00
2023-04-08T20:55:17.835Z,10.00
2023-04-08T20:57:47.948Z,10.00
2023-04-08T21:00:17.280Z,9.90
2023-04-08T21:02:45.953Z,9.80
2023-04-08T21:05:14.737Z,9.80
2023-04-08T21:07:44.696Z,9.80
2023-04-08T21:10:14.390Z,9.70
2023-04-08T21:12:42.603Z,9.70
2023-04-08T21:15:12.668Z,9.70
2023-04-08T21:17:41.017Z,9.60
2023-04-08T21:20:10.518Z,9.60
2023-04-08T21:22:38.793Z,9.60
2023-04-08T21:25:08.208Z,9.60
2023-04-08T21:27:36.378Z,9.60
2023-04-08T21:30:04.906Z,9.50
2023-04-08T21:32:35.107Z,9.40
2023-04-08T21:35:03.332Z,9.30
2023-04-08T21:37:31.761Z,9.20
2023-04-08T21:40:00.129Z,9.20
2023-04-08T21:42:28.891Z,9.10
2023-04-08T21:44:57.881Z,9.10
2023-04-08T21:47:26.351Z,9.00
2023-04-08T21:49:56.013Z,9.00
2023-04-08T21:52:24.642Z,9.00
2023-04-08T21:54:52.922Z,9.00
2023-04-08T21:57:21.152Z,9.00
2023-04-08T21:59:49.828Z,8.90
2023-04-08T22:02:18.226Z,8.90
2023-04-08T22:04:46.886Z,8.90
2023-04-08T22:07:16.824Z,8.80
2023-04-08T22:09:45.181Z,8.80
2023-04-08T22:12:13.407Z,8.80
2023-04-08T22:14:41.553Z,8.80
2023-04-08T22:17:10.165Z,8.80
2023-04-08T22:19:38.324Z,8.80
2023-04-08T22:22:06.605Z,8.80
2023-04-08T22:24:37.181Z,8.80
2023-04-08T22:27:05.401Z,8.80
2023-04-08T22:29:33.993Z,8.70
2023-04-08T22:32:02.306Z,8.60
2023-04-08T22:34:30.415Z,8.60
2023-04-08T22:36:58.904Z,8.50
2023-04-08T22:39:27.845Z,8.40
2023-04-08T22:41:57.871Z,8.40
2023-04-08T22:44:26.343Z,8.50
2023-04-08T22:46:54.858Z,8.50
2023-04-08T22:49:22.988Z,8.50
2023-04-08T22:51:51.373Z,8.50
2023-04-08T22:54:19.670Z,8.50
2023-04-08T22:56:47.852Z,8.40
2023-04-08T22:59:17.733Z,8.40
2023-04-08T23:01:46.254Z,8.40
2023-04-08T23:04:14.474Z,8.30
2023-04-08T23:06:42.923Z,8.30
2023-04-08T23:09:11.111Z,8.30
2023-04-08T23:11:39.236Z,8.30
2023-04-08T23:14:07.687Z,8.30
2023-04-08T23:16:37.474Z,8.30
2023-04-08T23:19:05.817Z,8.30
2023-04-08T23:21:34.364Z,8.30
2023-04-08T23:24:02.794Z,8.40
2023-04-08T23:26:31.081Z,8.40
2023-04-08T23:29:00.171Z,8.30
2023-04-08T23:31:28.725Z,8.30
2023-04-08T23:33:58.247Z,8.30
2023-04-08T23:36:27.627Z,8.40
2023-04-08T23:38:55.858Z,8.40
2023-04-08T23:41:24.039Z,8.40
2023-04-08T23:43:52.822Z,8.40
2023-04-08T23:46:21.014Z,8.40
2023-04-08T23:48:49.332Z,8.40
2023-04-08T23:51:19.308Z,8.40
2023-04-08T23:53:47.769Z,8.20
2023-04-08T23:56:16.057Z,8.20
2023-04-08T23:58:44.458Z,8.20
